Time;durP1;ratioP1;P1;durP2;ratioP2;P2;SDS_P1;SDS_P2;PMS_P1;PMS_P2;Temp;Humidity;BMP_temperature;BMP_pressure;BME280_temperature;BME280_humidity;BME280_pressure;Samples;Min_cycle;Max_cycle;Signal;HPM_P1;HPM_P2
2023/05/29 00:02:04;;;;;;;16.70;5.78;;;12.20;17.90;;;;;;5074214;28;20119;-68
2023/05/29 00:04:30;;;;;;;10.15;5.03;;;12.10;17.70;;;;;;5074502;28;20078;-68
2023/05/29 00:06:55;;;;;;;8.93;5.32;;;12.20;16.00;;;;;;5074559;28;20478;-68
2023/05/29 00:09:21;;;;;;;12.02;5.25;;;12.10;18.90;;;;;;5073969;28;20048;-68
2023/05/29 00:11:50;;;;;;;11.63;5.05;;;12.00;20.10;;;;;;5073991;28;20478;-68
2023/05/29 00:14:19;;;;;;;13.60;5.57;;;12.00;24.80;;;;;;5074077;28;20044;-68
2023/05/29 00:16:46;;;;;;;11.98;5.93;;;12.00;26.90;;;;;;5074016;28;20497;-68
2023/05/29 00:19:13;;;;;;;13.18;5.53;;;11.90;33.60;;;;;;5074093;28;20021;-68
2023/05/29 00:21:40;;;;;;;11.55;5.15;;;11.90;35.50;;;;;;5074390;28;20115;-68
2023/05/29 00:24:05;;;;;;;14.15;5.03;;;11.90;32.70;;;;;;5074233;28;20028;-68
2023/05/29 00:26:31;;;;;;;19.85;5.53;;;11.80;35.50;;;;;;5074120;28;20436;-67
2023/05/29 00:28:57;;;;;;;11.57;5.22;;;11.80;34.70;;;;;;5074095;28;20024;-68
2023/05/29 00:31:24;;;;;;;13.77;5.05;;;11.80;33.40;;;;;;5073927;28;20061;-68
2023/05/29 00:33:49;;;;;;;15.55;5.50;;;11.80;32.80;;;;;;5073936;28;20032;-68
2023/05/29 00:36:16;;;;;;;12.90;4.65;;;11.80;23.40;;;;;;5073628;28;20036;-67
2023/05/29 00:38:41;;;;;;;15.60;5.32;;;11.80;18.50;;;;;;5073650;28;20393;-67
2023/05/29 00:41:07;;;;;;;17.48;4.32;;;11.80;10.00;;;;;;5073689;28;20029;-68
2023/05/29 00:43:33;;;;;;;11.57;4.43;;;11.80;1.40;;;;;;5074252;28;20021;-67
2023/05/29 00:45:59;;;;;;;12.27;4.85;;;11.70;1.00;;;;;;5073882;28;20482;-67
2023/05/29 00:48:25;;;;;;;16.63;4.95;;;11.70;3.10;;;;;;5073899;28;20538;-68
2023/05/29 00:50:51;;;;;;;13.57;4.75;;;11.70;1.00;;;;;;5073334;28;20496;-67
2023/05/29 00:53:21;;;;;;;14.57;5.55;;;11.60;1.00;;;;;;5073131;28;20056;-67
2023/05/29 00:55:46;;;;;;;10.05;3.90;;;11.60;2.80;;;;;;5073334;28;20020;-68
2023/05/29 00:58:12;;;;;;;12.40;4.50;;;11.60;1.00;;;;;;5073713;28;20531;-67
2023/05/29 01:00:38;;;;;;;13.70;5.07;;;11.60;1.00;;;;;;5073896;28;20032;-67
2023/05/29 01:03:06;;;;;;;17.63;5.18;;;11.50;1.00;;;;;;5073628;28;20075;-68
2023/05/29 01:05:34;;;;;;;19.30;4.97;;;11.40;6.80;;;;;;5073742;28;20028;-68
2023/05/29 01:08:00;;;;;;;19.17;4.80;;;11.40;3.30;;;;;;5073683;28;20040;-67
2023/05/29 01:10:28;;;;;;;17.90;4.85;;;11.40;3.20;;;;;;5073248;28;20044;-67
2023/05/29 01:13:04;;;;;;;15.65;4.68;;;11.40;3.20;;;;;;5073503;28;20025;-67
2023/05/29 01:15:49;;;;;;;16.17;4.38;;;11.30;2.70;;;;;;5073597;28;20563;-68
2023/05/29 01:21:46;;;;;;;17.50;5.15;;;11.20;2.60;;;;;;5111177;27;20426;-68
2023/05/29 01:24:37;;;;;;;18.30;5.22;;;11.20;2.60;;;;;;5111199;28;20042;-67
2023/05/29 01:27:08;;;;;;;16.48;4.95;;;11.10;1.00;;;;;;5110200;28;20106;-67
2023/05/29 01:29:34;;;;;;;14.27;4.47;;;11.00;4.30;;;;;;5110660;28;20038;-67
2023/05/29 01:32:01;;;;;;;23.08;5.68;;;11.00;5.40;;;;;;5110796;28;20547;-67
2023/05/29 01:34:28;;;;;;;15.80;4.57;;;11.00;6.70;;;;;;5110954;28;20032;-67
2023/05/29 01:36:53;;;;;;;22.42;5.13;;;10.90;7.30;;;;;;5110728;28;20496;-67
2023/05/29 01:39:21;;;;;;;17.23;5.38;;;10.90;11.20;;;;;;5110553;27;20020;-67
2023/05/29 01:41:47;;;;;;;19.67;5.00;;;10.90;11.20;;;;;;5110547;28;20023;-68
2023/05/29 01:44:13;;;;;;;22.05;4.93;;;10.80;13.80;;;;;;5090719;28;20498;-67
2023/05/29 01:46:41;;;;;;;20.88;5.03;;;10.80;15.90;;;;;;5090830;28;20028;-67
2023/05/29 01:49:07;;;;;;;15.75;4.57;;;10.80;19.20;;;;;;5090028;28;20025;-67
2023/05/29 01:51:33;;;;;;;27.73;5.63;;;10.70;22.90;;;;;;5090056;28;20489;-68
2023/05/29 01:54:00;;;;;;;22.63;5.10;;;10.70;22.30;;;;;;5090261;28;20056;-67
2023/05/29 01:56:27;;;;;;;20.90;5.72;;;10.60;26.40;;;;;;5090311;28;20017;-67
2023/05/29 01:58:54;;;;;;;14.70;4.15;;;10.60;29.50;;;;;;5090269;28;20020;-68
2023/05/29 02:01:21;;;;;;;16.70;4.50;;;10.50;27.30;;;;;;5090384;28;20024;-67
2023/05/29 02:03:47;;;;;;;18.45;5.07;;;10.50;30.30;;;;;;5090316;28;20486;-68
2023/05/29 02:06:12;;;;;;;19.27;4.40;;;10.50;33.40;;;;;;5090284;28;20039;-67
2023/05/29 02:08:38;;;;;;;20.13;4.88;;;10.50;37.00;;;;;;5090161;28;20094;-68
2023/05/29 02:11:03;;;;;;;25.50;5.55;;;10.40;34.30;;;;;;5089565;28;20020;-67
2023/05/29 02:13:29;;;;;;;21.05;5.38;;;10.40;38.30;;;;;;5090013;28;20064;-67
2023/05/29 02:15:55;;;;;;;26.73;5.63;;;10.40;42.70;;;;;;5090107;28;20017;-67
2023/05/29 02:18:21;;;;;;;20.23;4.80;;;10.30;44.30;;;;;;5089946;28;20378;-67
2023/05/29 02:20:46;;;;;;;20.70;5.22;;;10.30;47.40;;;;;;5089473;28;20048;-67
2023/05/29 02:23:12;;;;;;;23.83;5.30;;;10.30;48.40;;;;;;5089614;28;20028;-67
2023/05/29 02:25:38;;;;;;;18.63;4.65;;;10.30;46.40;;;;;;5090105;28;20040;-68
2023/05/29 02:28:04;;;;;;;15.95;4.30;;;10.20;49.60;;;;;;5089824;28;20025;-67
2023/05/29 02:30:30;;;;;;;21.10;5.32;;;10.20;52.40;;;;;;5089096;28;20039;-68
2023/05/29 02:32:55;;;;;;;20.58;5.75;;;10.10;52.20;;;;;;5075327;28;20020;-67
2023/05/29 02:35:22;;;;;;;19.95;4.93;;;10.00;56.70;;;;;;5076199;28;20067;-67
2023/05/29 02:37:49;;;;;;;18.90;4.85;;;10.00;58.90;;;;;;5076242;28;20482;-68
2023/05/29 02:40:14;;;;;;;26.13;5.15;;;10.00;60.90;;;;;;5075934;28;20032;-67
2023/05/29 02:42:40;;;;;;;21.50;4.70;;;9.90;65.50;;;;;;5076218;28;20024;-67
2023/05/29 02:45:06;;;;;;;17.92;4.88;;;9.90;73.60;;;;;;5075747;28;20363;-68
2023/05/29 02:47:31;;;;;;;18.48;4.45;;;9.90;78.00;;;;;;5075927;28;20036;-67
2023/05/29 02:49:57;;;;;;;21.75;5.20;;;9.90;84.40;;;;;;5075940;28;20028;-67
2023/05/29 02:52:23;;;;;;;21.85;6.05;;;9.90;79.80;;;;;;5075792;28;20028;-67
2023/05/29 02:54:49;;;;;;;24.73;4.57;;;9.80;79.60;;;;;;5075791;28;20389;-68
2023/05/29 02:57:15;;;;;;;21.85;5.38;;;9.90;75.90;;;;;;5075885;28;20067;-68
2023/05/29 02:59:42;;;;;;;20.35;5.53;;;9.80;74.80;;;;;;5075733;28;20060;-67
2023/05/29 03:02:07;;;;;;;15.98;4.75;;;9.80;75.10;;;;;;5075883;28;20051;-67
2023/05/29 03:04:33;;;;;;;26.75;6.68;;;9.80;75.60;;;;;;5075610;28;20489;-67
2023/05/29 03:06:59;;;;;;;21.73;4.70;;;9.80;79.30;;;;;;5075446;28;20028;-68
2023/05/29 03:09:25;;;;;;;23.88;5.57;;;9.70;80.30;;;;;;5075534;28;20028;-67
2023/05/29 03:11:51;;;;;;;16.38;4.82;;;9.70;86.90;;;;;;5075544;28;20044;-68
2023/05/29 03:14:18;;;;;;;17.55;4.30;;;9.60;91.40;;;;;;5075516;28;20051;-67
2023/05/29 03:16:45;;;;;;;16.85;4.13;;;9.60;96.10;;;;;;5075477;28;20020;-67
2023/05/29 03:19:11;;;;;;;23.88;4.90;;;9.60;98.50;;;;;;5074492;28;20029;-67
2023/05/29 03:21:36;;;;;;;25.77;5.15;;;9.60;97.80;;;;;;5075143;28;20029;-67
2023/05/29 03:24:02;;;;;;;20.63;5.18;;;9.50;98.20;;;;;;5075333;28;20033;-67
2023/05/29 03:26:28;;;;;;;15.70;4.45;;;9.50;99.90;;;;;;5075057;28;20100;-67
2023/05/29 03:28:54;;;;;;;20.30;4.95;;;9.50;99.90;;;;;;5075225;28;20031;-67
2023/05/29 03:31:20;;;;;;;22.58;5.55;;;9.50;99.90;;;;;;5074756;28;20024;-67
2023/05/29 03:33:47;;;;;;;21.25;4.53;;;9.50;99.90;;;;;;5075094;28;20037;-67
2023/05/29 03:36:13;;;;;;;25.45;5.70;;;9.40;99.90;;;;;;5074419;28;20056;-67
2023/05/29 03:38:39;;;;;;;20.30;4.82;;;9.50;99.90;;;;;;5074605;28;20367;-67
2023/05/29 03:41:05;;;;;;;18.23;4.55;;;9.50;99.90;;;;;;5074553;28;20028;-67
2023/05/29 03:43:30;;;;;;;19.98;5.57;;;9.50;99.90;;;;;;5073953;28;20024;-67
2023/05/29 03:45:56;;;;;;;19.00;4.85;;;9.50;99.90;;;;;;5074894;28;20034;-67
2023/05/29 03:48:22;;;;;;;21.42;4.90;;;9.50;99.90;;;;;;5074637;28;20032;-68
2023/05/29 03:50:48;;;;;;;18.60;4.55;;;9.50;99.90;;;;;;5074654;28;20037;-67
2023/05/29 03:53:17;;;;;;;16.15;5.22;;;9.50;99.90;;;;;;5074770;28;20024;-67
2023/05/29 03:55:45;;;;;;;20.88;4.13;;;9.50;99.90;;;;;;5074613;28;20028;-68
2023/05/29 03:58:12;;;;;;;22.75;5.78;;;9.60;99.90;;;;;;5074576;28;20406;-67
2023/05/29 04:00:39;;;;;;;20.40;4.90;;;9.60;99.90;;;;;;5073997;28;20024;-67
2023/05/29 04:03:05;;;;;;;22.83;5.45;;;9.70;99.90;;;;;;5074195;28;20024;-67
2023/05/29 04:05:30;;;;;;;21.60;5.10;;;9.70;99.10;;;;;;5074376;28;20021;-67
2023/05/29 04:07:56;;;;;;;19.27;4.57;;;9.70;98.80;;;;;;5074215;28;20104;-67
2023/05/29 04:10:23;;;;;;;16.40;4.75;;;9.70;95.10;;;;;;5074164;28;20481;-67
2023/05/29 04:12:49;;;;;;;21.95;4.72;;;9.80;94.20;;;;;;5074309;28;20048;-67
2023/05/29 04:15:15;;;;;;;16.48;4.57;;;9.90;91.50;;;;;;5074449;28;20056;-67
2023/05/29 04:17:41;;;;;;;27.40;5.85;;;9.90;86.00;;;;;;5074264;28;20025;-67
2023/05/29 04:20:08;;;;;;;19.30;4.88;;;10.00;81.90;;;;;;5073672;28;20052;-67
2023/05/29 04:22:36;;;;;;;16.75;5.00;;;10.00;75.50;;;;;;5073658;28;20500;-67
2023/05/29 04:25:03;;;;;;;18.02;4.75;;;10.10;67.10;;;;;;5073485;28;20567;-67
2023/05/29 04:27:32;;;;;;;15.93;5.43;;;10.10;63.10;;;;;;5073905;28;20028;-67
2023/05/29 04:29:58;;;;;;;20.67;5.43;;;10.30;59.60;;;;;;5073986;28;20036;-67
2023/05/29 04:32:23;;;;;;;17.83;4.80;;;10.40;48.10;;;;;;5073880;28;20027;-67
2023/05/29 04:34:52;;;;;;;19.88;4.90;;;10.60;30.10;;;;;;5073915;28;20041;-68
2023/05/29 04:37:17;;;;;;;18.38;4.68;;;11.20;34.80;;;;;;5073643;28;20032;-68
2023/05/29 04:39:43;;;;;;;16.67;4.03;;;12.20;1.00;;;;;;5073690;28;20033;-68
2023/05/29 04:42:09;;;;;;;12.15;3.65;;;13.10;1.00;;;;;;5073423;28;20025;-68
2023/05/29 04:44:38;;;;;;;18.30;4.80;;;13.80;99.90;;;;;;5073882;28;20032;-68
2023/05/29 04:47:04;;;;;;;13.32;3.17;;;14.60;99.90;;;;;;5073134;28;20398;-68
2023/05/29 04:49:29;;;;;;;13.43;4.10;;;14.70;1.00;;;;;;5073462;28;20025;-68
2023/05/29 04:51:55;;;;;;;14.75;3.65;;;15.40;1.00;;;;;;5073481;28;20032;-68
2023/05/29 04:54:22;;;;;;;16.75;3.70;;;14.90;99.90;;;;;;5073442;28;20024;-68
2023/05/29 04:56:48;;;;;;;13.77;4.05;;;15.10;99.90;;;;;;5073073;28;20024;-68
2023/05/29 04:59:14;;;;;;;12.77;3.50;;;15.30;1.00;;;;;;5073597;28;20078;-68
2023/05/29 05:01:43;;;;;;;10.25;3.42;;;15.90;99.90;;;;;;5073268;28;20025;-68
2023/05/29 05:04:08;;;;;;;14.15;3.78;;;15.70;12.30;;;;;;5072905;28;20020;-68
2023/05/29 05:06:34;;;;;;;11.15;3.38;;;16.10;43.80;;;;;;5072914;28;20536;-68
2023/05/29 05:09:00;;;;;;;15.05;3.95;;;15.50;88.60;;;;;;5073384;28;20032;-68
2023/05/29 05:11:26;;;;;;;16.35;4.10;;;14.40;41.30;;;;;;5073568;28;20029;-68
2023/05/29 05:13:52;;;;;;;19.38;4.47;;;13.80;1.00;;;;;;5073273;28;20496;-68
2023/05/29 05:16:18;;;;;;;15.63;3.97;;;14.00;1.00;;;;;;5073296;28;20024;-68
2023/05/29 05:18:44;;;;;;;14.07;3.30;;;13.90;99.90;;;;;;5073357;28;20494;-68
2023/05/29 05:21:13;;;;;;;19.20;4.07;;;14.00;99.90;;;;;;5072875;28;20109;-68
2023/05/29 05:23:38;;;;;;;14.68;3.58;;;14.70;1.00;;;;;;5072743;28;20044;-68
2023/05/29 05:26:04;;;;;;;16.05;3.70;;;15.50;1.00;;;;;;5073310;28;20021;-68
2023/05/29 05:28:30;;;;;;;16.63;4.15;;;15.80;99.90;;;;;;5073391;28;20435;-67
2023/05/29 05:30:56;;;;;;;16.42;3.65;;;16.50;99.90;;;;;;5073158;28;20024;-68
2023/05/29 05:33:21;;;;;;;11.50;3.65;;;17.30;47.60;;;;;;5073287;28;20424;-68
2023/05/29 05:35:47;;;;;;;10.63;3.33;;;17.40;99.90;;;;;;5073354;28;20103;-68
2023/05/29 05:38:13;;;;;;;13.00;4.13;;;17.40;99.90;;;;;;5073448;28;20032;-68
2023/05/29 05:40:39;;;;;;;15.85;4.25;;;17.90;99.90;;;;;;5072536;28;20028;-68
2023/05/29 05:43:06;;;;;;;16.75;4.38;;;17.90;74.00;;;;;;5072635;28;20052;-68
2023/05/29 05:45:31;;;;;;;15.23;4.55;;;17.70;99.90;;;;;;5072541;28;20024;-67
2023/05/29 05:47:57;;;;;;;13.82;4.65;;;16.90;99.90;;;;;;5072978;28;20025;-68
2023/05/29 05:50:24;;;;;;;13.98;4.45;;;17.20;99.90;;;;;;5072865;28;20043;-68
2023/05/29 05:52:50;;;;;;;17.73;5.38;;;17.70;99.90;;;;;;5072898;28;20017;-68
2023/05/29 05:55:16;;;;;;;17.73;6.03;;;18.30;35.60;;;;;;5073035;28;20021;-68
2023/05/29 05:57:41;;;;;;;16.52;5.97;;;18.20;1.00;;;;;;5071888;28;20474;-68
2023/05/29 06:00:11;;;;;;;23.33;6.65;;;17.90;1.00;;;;;;5072465;28;20447;-68
2023/05/29 06:02:37;;;;;;;16.40;5.32;;;18.10;1.00;;;;;;5072985;28;20028;-68
2023/05/29 06:05:03;;;;;;;17.55;5.57;;;18.90;1.00;;;;;;5073008;28;20081;-68
2023/05/29 06:07:29;;;;;;;16.63;4.90;;;18.70;1.00;;;;;;5075098;28;20021;-68
2023/05/29 06:09:55;;;;;;;14.35;5.70;;;19.00;1.00;;;;;;5076279;28;20115;-69
2023/05/29 06:12:21;;;;;;;16.27;6.03;;;18.50;1.00;;;;;;5076552;28;20150;-68
2023/05/29 06:14:46;;;;;;;20.85;6.50;;;18.80;1.00;;;;;;5076483;28;20031;-68
2023/05/29 06:17:13;;;;;;;20.27;7.35;;;17.80;1.00;;;;;;5076637;28;20039;-68
2023/05/29 06:19:38;;;;;;;20.15;7.75;;;17.60;1.00;;;;;;5076229;28;20080;-68
2023/05/29 06:22:05;;;;;;;19.55;7.72;;;17.80;1.00;;;;;;5076058;28;20097;-68
2023/05/29 06:24:33;;;;;;;17.60;6.90;;;18.40;1.00;;;;;;5076096;28;20029;-68
2023/05/29 06:26:59;;;;;;;19.98;7.90;;;19.20;1.00;;;;;;5076361;28;20390;-68
2023/05/29 06:29:25;;;;;;;19.33;7.47;;;19.30;1.00;;;;;;5076491;28;20029;-68
2023/05/29 06:31:51;;;;;;;17.30;7.00;;;18.50;1.00;;;;;;5076440;28;20036;-68
2023/05/29 06:34:16;;;;;;;19.35;6.28;;;18.20;1.00;;;;;;5076276;28;20033;-68
2023/05/29 06:36:43;;;;;;;19.42;6.68;;;18.40;1.00;;;;;;5076102;28;20032;-68
2023/05/29 06:39:10;;;;;;;17.57;6.50;;;19.50;1.00;;;;;;5076088;28;20501;-68
2023/05/29 06:41:35;;;;;;;13.65;6.32;;;20.70;99.90;;;;;;5075969;28;20490;-69
2023/05/29 06:44:01;;;;;;;15.82;6.53;;;20.40;99.90;;;;;;5075860;28;20031;-68
2023/05/29 06:46:27;;;;;;;16.63;6.72;;;19.80;99.90;;;;;;5076064;28;20033;-68
2023/05/29 06:48:53;;;;;;;16.73;7.03;;;19.20;99.90;;;;;;5076008;28;20031;-68
2023/05/29 06:51:18;;;;;;;20.92;6.68;;;18.80;99.90;;;;;;5075826;28;20033;-68
2023/05/29 06:53:44;;;;;;;17.38;6.25;;;18.40;99.90;;;;;;5075557;28;20020;-68
2023/05/29 06:56:10;;;;;;;16.38;6.32;;;18.00;1.00;;;;;;5075813;28;20025;-68
2023/05/29 06:58:36;;;;;;;16.23;6.32;;;18.80;1.00;;;;;;5075422;28;20385;-68
2023/05/29 07:01:01;;;;;;;16.67;6.43;;;19.10;1.00;;;;;;5075571;28;20040;-68
2023/05/29 07:03:28;;;;;;;12.65;5.65;;;20.40;99.90;;;;;;5075958;28;20025;-68
2023/05/29 07:05:53;;;;;;;16.50;6.70;;;21.20;99.90;;;;;;5075467;28;20123;-68
2023/05/29 07:08:19;;;;;;;15.10;5.68;;;20.90;99.90;;;;;;5075333;28;20525;-69
2023/05/29 07:10:45;;;;;;;15.00;6.13;;;21.40;99.90;;;;;;5075516;28;20559;-68
2023/05/29 07:13:15;;;;;;;15.30;6.60;;;20.20;99.90;;;;;;5075506;28;20033;-68
2023/05/29 07:15:41;;;;;;;19.52;6.75;;;20.10;99.90;;;;;;5075222;28;20024;-69
2023/05/29 07:18:07;;;;;;;16.15;5.63;;;20.00;99.90;;;;;;5075348;28;20394;-68
2023/05/29 07:20:32;;;;;;;14.90;4.78;;;19.50;99.90;;;;;;5075008;28;20090;-69
2023/05/29 07:22:58;;;;;;;10.77;4.10;;;20.10;99.90;;;;;;5074883;28;20025;-68
2023/05/29 07:25:24;;;;;;;13.63;4.32;;;20.30;99.90;;;;;;5075254;28;20027;-68
2023/05/29 07:27:49;;;;;;;14.65;4.20;;;20.80;99.90;;;;;;5074722;28;20031;-68
2023/05/29 07:30:15;;;;;;;11.00;3.80;;;21.40;99.90;;;;;;5075183;28;20512;-69
2023/05/29 07:32:41;;;;;;;12.88;4.22;;;21.50;99.90;;;;;;5074889;28;20020;-68
2023/05/29 07:35:07;;;;;;;9.77;4.05;;;21.00;99.90;;;;;;5074565;28;20052;-68
2023/05/29 07:37:34;;;;;;;11.48;4.10;;;20.00;99.90;;;;;;5075007;28;20117;-69
2023/05/29 07:40:00;;;;;;;17.65;4.85;;;20.20;99.90;;;;;;5074777;28;20070;-68
2023/05/29 07:42:26;;;;;;;11.82;4.20;;;20.40;99.90;;;;;;5074757;28;20474;-68
2023/05/29 07:44:52;;;;;;;12.38;3.58;;;21.10;99.90;;;;;;5074525;28;20119;-68
2023/05/29 07:47:18;;;;;;;9.93;3.65;;;22.20;99.90;;;;;;5074663;28;20036;-68
2023/05/29 07:49:46;;;;;;;13.32;3.83;;;20.80;99.90;;;;;;5074758;28;20028;-69
2023/05/29 07:52:12;;;;;;;12.18;4.25;;;19.90;99.90;;;;;;5074445;28;20032;-68
2023/05/29 07:54:37;;;;;;;12.60;3.90;;;20.70;99.90;;;;;;5074620;28;20039;-68
2023/05/29 07:57:09;;;;;;;10.57;3.25;;;21.90;99.90;;;;;;5074307;28;20028;-68
2023/05/29 07:59:35;;;;;;;14.52;4.05;;;21.50;99.90;;;;;;5074433;28;20074;-68
2023/05/29 08:02:02;;;;;;;14.23;3.67;;;21.10;99.90;;;;;;5074518;28;20504;-68
2023/05/29 08:04:28;;;;;;;12.85;3.75;;;21.00;99.90;;;;;;5074071;28;20119;-68
2023/05/29 08:06:54;;;;;;;9.48;3.45;;;21.30;99.90;;;;;;5074492;28;20075;-68
2023/05/29 08:09:20;;;;;;;15.23;4.25;;;21.80;99.90;;;;;;5074384;28;20027;-68
2023/05/29 08:11:47;;;;;;;8.88;3.28;;;20.60;99.90;;;;;;5074284;28;20021;-69
2023/05/29 08:14:14;;;;;;;8.85;3.30;;;21.30;99.90;;;;;;5074263;28;20064;-68
2023/05/29 08:16:40;;;;;;;11.45;3.38;;;21.60;99.90;;;;;;5073957;28;20023;-69
2023/05/29 08:19:05;;;;;;;11.00;3.58;;;21.70;99.90;;;;;;5073496;28;20509;-69
2023/05/29 08:21:32;;;;;;;14.55;3.33;;;21.40;99.90;;;;;;5073517;28;20115;-69
2023/05/29 08:23:58;;;;;;;11.32;3.78;;;20.80;99.90;;;;;;5073625;28;20027;-68
2023/05/29 08:26:24;;;;;;;14.38;3.22;;;20.40;99.90;;;;;;5073954;28;20020;-68
2023/05/29 08:28:50;;;;;;;11.48;3.42;;;21.10;99.90;;;;;;5073306;28;20127;-68
2023/05/29 08:31:16;;;;;;;9.88;3.30;;;20.20;99.90;;;;;;5074092;28;20028;-67
2023/05/29 08:33:42;;;;;;;11.32;3.55;;;21.10;99.90;;;;;;5073529;28;20440;-68
2023/05/29 08:36:08;;;;;;;9.32;3.35;;;20.40;99.90;;;;;;5074022;28;20028;-67
2023/05/29 08:38:35;;;;;;;10.85;3.17;;;20.20;99.90;;;;;;5073758;28;20082;-68
2023/05/29 08:41:00;;;;;;;11.10;3.22;;;20.10;99.90;;;;;;5073667;28;20028;-68
2023/05/29 08:43:31;;;;;;;10.07;2.85;;;21.50;99.90;;;;;;5073661;28;20024;-68
2023/05/29 08:46:01;;;;;;;11.20;3.38;;;22.60;99.90;;;;;;5073617;28;20059;-68
2023/05/29 08:48:28;;;;;;;15.38;3.80;;;22.90;99.90;;;;;;5073515;28;20394;-68
2023/05/29 08:50:56;;;;;;;11.20;3.35;;;22.30;99.90;;;;;;5073203;28;20394;-67
2023/05/29 08:53:23;;;;;;;11.35;3.53;;;22.10;99.90;;;;;;5073923;28;20033;-68
2023/05/29 08:55:52;;;;;;;11.23;3.60;;;22.70;99.90;;;;;;5073572;28;20028;-68
2023/05/29 08:58:20;;;;;;;9.40;2.90;;;21.40;99.90;;;;;;5073130;28;20060;-68
2023/05/29 09:00:47;;;;;;;13.98;4.05;;;20.70;99.90;;;;;;5072861;28;20064;-69
2023/05/29 09:03:13;;;;;;;11.07;3.70;;;20.50;99.90;;;;;;5073495;28;20025;-68
2023/05/29 09:05:41;;;;;;;10.15;3.20;;;20.70;99.90;;;;;;5073297;28;20027;-68
2023/05/29 09:08:15;;;;;;;12.02;3.80;;;21.30;99.90;;;;;;5073352;28;20075;-68
2023/05/29 09:10:43;;;;;;;11.93;3.42;;;21.80;99.90;;;;;;5071897;28;20032;-68
2023/05/29 09:13:09;;;;;;;10.57;3.05;;;22.40;99.90;;;;;;5072157;28;20478;-68
2023/05/29 09:15:36;;;;;;;11.77;2.92;;;21.60;99.90;;;;;;5073236;28;20490;-68
2023/05/29 09:18:04;;;;;;;12.82;3.80;;;21.20;99.90;;;;;;5073211;28;20099;-68
2023/05/29 09:20:30;;;;;;;11.75;3.42;;;21.50;99.90;;;;;;5072870;28;20063;-68
2023/05/29 09:23:02;;;;;;;9.82;3.35;;;22.00;99.90;;;;;;5073179;28;20017;-68
2023/05/29 09:25:30;;;;;;;12.95;3.67;;;21.80;99.90;;;;;;5073391;28;20476;-68
2023/05/29 09:28:02;;;;;;;9.48;2.95;;;22.30;99.90;;;;;;5073298;28;20017;-68
2023/05/29 09:30:48;;;;;;;11.98;3.17;;;22.40;99.90;;;;;;5073120;28;20033;-68
2023/05/29 09:33:15;;;;;;;9.43;3.03;;;22.50;99.90;;;;;;5073227;28;20044;-68
2023/05/29 09:35:50;;;;;;;9.73;3.63;;;21.80;99.90;;;;;;5073043;28;20039;-68
2023/05/29 09:38:17;;;;;;;9.95;3.35;;;20.60;99.90;;;;;;5072963;28;20032;-68
2023/05/29 09:40:46;;;;;;;14.45;3.47;;;20.90;99.90;;;;;;5071900;28;20028;-68
2023/05/29 09:43:17;;;;;;;13.55;3.58;;;20.80;99.90;;;;;;5076929;28;20055;-68
2023/05/29 09:45:45;;;;;;;10.88;3.30;;;21.40;99.90;;;;;;5076656;28;20477;-68
2023/05/29 09:48:16;;;;;;;11.23;3.50;;;22.00;99.90;;;;;;5076883;28;20024;-68
2023/05/29 09:50:50;;;;;;;10.32;3.17;;;21.80;99.90;;;;;;5076948;28;20029;-69
2023/05/29 09:53:19;;;;;;;9.88;3.75;;;22.30;99.90;;;;;;5076477;28;20039;-69
2023/05/29 09:55:47;;;;;;;9.27;3.10;;;23.70;99.90;;;;;;5076516;28;20115;-68
2023/05/29 09:58:17;;;;;;;11.10;3.38;;;23.40;99.90;;;;;;5076584;28;20040;-69
2023/05/29 10:00:45;;;;;;;12.23;3.53;;;23.70;99.90;;;;;;5076598;28;20039;-68
2023/05/29 10:03:14;;;;;;;8.68;2.90;;;23.60;99.90;;;;;;5075774;28;20385;-68
2023/05/29 10:05:43;;;;;;;12.65;3.30;;;23.90;99.90;;;;;;5076798;28;20477;-68
2023/05/29 10:08:13;;;;;;;12.65;3.38;;;23.80;99.90;;;;;;5076639;28;20025;-68
2023/05/29 10:10:43;;;;;;;13.48;4.05;;;23.70;99.90;;;;;;5076533;28;20073;-68
2023/05/29 10:13:12;;;;;;;10.68;3.10;;;23.20;99.90;;;;;;5076684;28;20032;-69
2023/05/29 10:15:50;;;;;;;11.38;3.30;;;23.00;99.90;;;;;;5076288;28;20036;-68
2023/05/29 10:18:23;;;;;;;8.93;3.40;;;22.70;99.90;;;;;;5076015;28;20029;-69
2023/05/29 10:20:51;;;;;;;12.55;3.55;;;23.30;99.90;;;;;;5076036;28;20401;-69
2023/05/29 10:23:25;;;;;;;11.75;3.50;;;23.30;99.90;;;;;;5076264;28;20031;-69
2023/05/29 10:25:56;;;;;;;11.50;3.45;;;21.80;99.90;;;;;;5076377;28;20020;-69
2023/05/29 10:28:24;;;;;;;11.27;3.40;;;22.00;99.90;;;;;;5075769;28;20119;-69
2023/05/29 10:31:01;;;;;;;9.43;3.55;;;22.70;99.90;;;;;;5075932;28;20034;-68
2023/05/29 10:33:50;;;;;;;9.57;3.38;;;22.60;99.90;;;;;;5076103;28;20382;-69
2023/05/29 10:36:21;;;;;;;9.48;3.40;;;23.40;99.90;;;;;;5076309;28;20027;-69
2023/05/29 10:38:48;;;;;;;13.10;3.88;;;23.00;99.90;;;;;;5076085;28;20033;-68
2023/05/29 10:41:30;;;;;;;11.00;3.50;;;22.90;99.90;;;;;;5075799;28;20031;-69
2023/05/29 10:43:58;;;;;;;10.95;3.53;;;23.30;99.90;;;;;;5076138;28;20509;-69
2023/05/29 10:49:25;;;;;;;12.13;3.45;;;22.90;99.90;;;;;;5090814;28;20428;-69
2023/05/29 10:51:51;;;;;;;16.17;3.88;;;22.30;99.90;;;;;;5090984;28;20024;-68
2023/05/29 10:54:23;;;;;;;10.57;3.20;;;22.00;99.90;;;;;;5090933;28;20024;-68
2023/05/29 10:56:55;;;;;;;10.52;3.70;;;21.80;99.90;;;;;;5090678;28;20070;-68
2023/05/29 10:59:21;;;;;;;9.45;3.70;;;22.00;99.90;;;;;;5070740;28;20505;-69
2023/05/29 11:01:52;;;;;;;11.10;2.65;;;22.40;99.90;;;;;;5070705;28;20037;-68
2023/05/29 11:06:56;;;;;;;8.80;3.20;;;22.50;99.90;;;;;;5111166;27;20319;-68
2023/05/29 11:09:37;;;;;;;14.15;3.85;;;22.10;99.90;;;;;;5111237;28;20073;-69
2023/05/29 11:12:25;;;;;;;11.02;3.72;;;21.50;99.90;;;;;;5111066;28;20024;-69
2023/05/29 11:15:04;;;;;;;12.48;3.55;;;21.30;99.90;;;;;;5090764;28;20478;-68
2023/05/29 11:20:28;;;;;;;13.80;3.75;;;21.10;99.90;;;;;;5152457;27;20378;-68
2023/05/29 11:23:03;;;;;;;13.25;4.28;;;20.90;99.90;;;;;;5131652;28;20030;-68
2023/05/29 11:25:33;;;;;;;14.30;3.53;;;20.90;99.90;;;;;;5131235;28;20441;-69
2023/05/29 11:28:00;;;;;;;12.88;3.80;;;21.20;99.90;;;;;;5131197;28;20558;-68
2023/05/29 11:30:26;;;;;;;13.77;3.50;;;21.20;99.90;;;;;;5111189;28;20028;-67
2023/05/29 11:32:53;;;;;;;9.38;3.13;;;21.10;99.90;;;;;;5110947;28;20028;-67
2023/05/29 11:35:22;;;;;;;8.60;3.28;;;21.00;99.90;;;;;;5110869;28;20544;-69
2023/05/29 11:37:50;;;;;;;11.93;3.30;;;20.70;99.90;;;;;;5111038;28;20032;-68
2023/05/29 11:40:15;;;;;;;10.65;3.15;;;20.90;99.90;;;;;;5110821;28;20161;-68
2023/05/29 11:42:44;;;;;;;7.25;2.85;;;21.50;99.90;;;;;;5110326;28;20503;-68
2023/05/29 11:45:11;;;;;;;8.30;3.10;;;22.00;99.90;;;;;;5110638;28;20082;-67
2023/05/29 11:47:56;;;;;;;13.50;3.50;;;21.60;99.90;;;;;;5110866;28;20598;-68
2023/05/29 11:50:24;;;;;;;10.30;3.08;;;21.70;99.90;;;;;;5110611;28;20039;-68
2023/05/29 11:52:53;;;;;;;8.20;3.25;;;21.50;99.90;;;;;;5110595;28;20077;-68
2023/05/29 11:55:20;;;;;;;10.30;3.55;;;21.80;99.90;;;;;;5110716;28;20027;-68
2023/05/29 11:57:47;;;;;;;8.77;3.05;;;21.70;99.90;;;;;;5110271;28;20107;-68
2023/05/29 12:00:18;;;;;;;10.00;3.53;;;21.80;99.90;;;;;;5110570;28;20477;-68
2023/05/29 12:02:46;;;;;;;9.98;3.40;;;21.30;99.90;;;;;;5110576;28;20509;-68
2023/05/29 12:05:14;;;;;;;7.50;3.00;;;21.60;99.90;;;;;;5110598;28;20038;-68
2023/05/29 12:07:49;;;;;;;9.52;3.08;;;21.40;99.90;;;;;;5110380;28;20027;-68
2023/05/29 12:10:16;;;;;;;8.98;3.15;;;21.80;99.90;;;;;;5110426;28;20106;-68
2023/05/29 12:12:47;;;;;;;10.35;3.17;;;21.70;99.90;;;;;;5110441;28;20028;-68
2023/05/29 12:15:13;;;;;;;13.65;4.10;;;22.00;99.90;;;;;;5110130;28;20058;-68
2023/05/29 12:17:40;;;;;;;6.65;3.03;;;22.00;99.90;;;;;;5109989;28;20028;-68
2023/05/29 12:20:09;;;;;;;9.20;2.88;;;22.10;99.90;;;;;;5109533;28;20140;-67
2023/05/29 12:22:37;;;;;;;9.93;3.25;;;21.40;99.90;;;;;;5110242;28;20035;-67
2023/05/29 12:25:20;;;;;;;9.63;3.17;;;21.50;99.90;;;;;;5109878;28;20020;-67
2023/05/29 12:27:48;;;;;;;12.05;3.50;;;21.40;99.90;;;;;;5110107;28;20054;-67
2023/05/29 12:30:19;;;;;;;10.88;3.60;;;21.40;99.90;;;;;;5104233;28;20035;-68
2023/05/29 12:32:47;;;;;;;10.02;3.15;;;21.20;99.90;;;;;;5096229;28;20066;-68
2023/05/29 12:35:17;;;;;;;9.93;3.35;;;21.50;99.90;;;;;;5096135;28;20493;-68
2023/05/29 12:37:45;;;;;;;8.65;3.45;;;21.70;99.90;;;;;;5096108;28;20030;-68
2023/05/29 12:40:15;;;;;;;13.85;4.32;;;21.40;99.90;;;;;;5095926;28;20534;-68
2023/05/29 12:42:41;;;;;;;7.57;3.13;;;21.60;99.90;;;;;;5096212;28;20021;-68
2023/05/29 12:45:08;;;;;;;8.15;3.30;;;21.50;99.90;;;;;;5095992;28;20032;-68
2023/05/29 12:47:33;;;;;;;9.70;3.67;;;20.90;99.90;;;;;;5096160;28;20023;-67
2023/05/29 12:50:00;;;;;;;9.52;3.40;;;21.00;99.90;;;;;;5096100;28;20032;-68
2023/05/29 12:52:25;;;;;;;12.13;3.53;;;21.20;99.90;;;;;;5095891;28;20074;-68
2023/05/29 12:54:51;;;;;;;10.27;3.78;;;21.20;99.90;;;;;;5095771;28;20048;-67